CheckWX is a tool to help pilots better visualize weather data.  It is not intended as a substitute for an official pre-flight weather briefing.

19:37:53 UTC

GAMB METAR
Mopti Airport
Mali
Current

2 hours ago

GAMB 261800Z 04004KT 9999 FEW030 40/16 Q1008
Observed
May-26 @ 18:00 UTC
Wind
  • 040° at 4 KTS
Visibility
10,000+ meters
Flight Rules
VFR
Cloud Levels
  • Few at 3,000' AGL
Temperature
40°C / 104°F
Dewpoint
16°C / 61°F
Humidity
24%
Altimeter
29.76" Hg
Pressure
1007.92 hPa
Previous

5 hours ago

GAMB 261500Z 24006KT 9999 FEW030 39/19 Q1008
Observed
May-26 @ 15:00 UTC
Wind
  • 240° at 6 KTS
Visibility
10,000+ meters
Flight Rules
VFR
Cloud Levels
  • Few at 3,000' AGL
Temperature
39°C / 102°F
Dewpoint
19°C / 66°F
Humidity
31%
Altimeter
29.76" Hg
Pressure
1007.92 hPa
Previous

8 hours ago

GAMB 261200Z 24012KT CAVOK 36/22 Q1011
Observed
May-26 @ 12:00 UTC
Wind
  • 240° at 12 KTS
Visibility
10,000+ meters
Flight Rules
VFR
Cloud Levels
  • Clear skies
Temperature
36°C / 97°F
Dewpoint
22°C / 72°F
Heat Index
41°C / 106°F
Humidity
44%
Altimeter
29.85" Hg
Pressure
1010.92 hPa